createdAt,value
2017-04-28T00:01:36.972Z,4.24
2017-04-28T00:04:06.132Z,4.22
2017-04-28T00:06:35.338Z,6.14
2017-04-28T00:09:03.821Z,6.28
2017-04-28T00:11:32.988Z,6.02
2017-04-28T00:14:01.849Z,3.70
2017-04-28T00:16:31.026Z,5.26
2017-04-28T00:19:00.188Z,4.48
2017-04-28T00:21:29.780Z,5.02
2017-04-28T00:23:58.602Z,4.42
2017-04-28T00:26:27.774Z,4.12
2017-04-28T00:28:56.970Z,6.78
2017-04-28T00:31:26.146Z,5.46
2017-04-28T00:33:55.318Z,4.84
2017-04-28T00:36:24.526Z,4.52
2017-04-28T00:38:53.684Z,4.96
2017-04-28T00:41:23.608Z,6.28
2017-04-28T00:43:52.468Z,5.10
2017-04-28T00:46:21.637Z,7.22
2017-04-28T00:48:50.813Z,4.72
2017-04-28T00:51:20.008Z,5.22
2017-04-28T00:53:49.399Z,6.06
2017-04-28T00:56:18.571Z,3.96
2017-04-28T00:58:47.769Z,7.40
2017-04-28T01:01:16.816Z,4.80
2017-04-28T01:03:45.637Z,6.12
2017-04-28T01:06:14.846Z,4.22
2017-04-28T01:08:44.019Z,6.30
2017-04-28T01:11:12.850Z,6.82
2017-04-28T01:13:42.783Z,5.14
2017-04-28T01:16:11.961Z,6.50
2017-04-28T01:18:41.895Z,5.18
2017-04-28T01:21:11.845Z,4.52
2017-04-28T01:23:41.019Z,8.08
2017-04-28T01:26:10.181Z,4.56
2017-04-28T01:28:39.389Z,7.70
2017-04-28T01:31:08.360Z,9.58
2017-04-28T01:33:37.525Z,6.50
2017-04-28T01:36:06.373Z,12.12
2017-04-28T01:38:36.291Z,8.60
2017-04-28T01:41:06.229Z,8.82
2017-04-28T01:43:35.404Z,8.28
2017-04-28T01:46:05.321Z,6.38
2017-04-28T01:48:34.546Z,8.62
2017-04-28T01:51:03.373Z,5.58
2017-04-28T01:53:32.541Z,5.76
2017-04-28T01:56:01.736Z,8.38
2017-04-28T01:58:30.915Z,11.02
2017-04-28T02:01:00.128Z,5.12
2017-04-28T02:03:28.981Z,7.28
2017-04-28T02:05:58.025Z,10.90
2017-04-28T02:08:27.466Z,3.78
2017-04-28T02:10:56.326Z,6.84
2017-04-28T02:13:25.492Z,6.70
2017-04-28T02:15:55.412Z,8.46
2017-04-28T02:18:25.350Z,7.28
2017-04-28T02:20:54.529Z,6.92
2017-04-28T02:23:24.458Z,9.18
2017-04-28T02:25:53.653Z,7.70
2017-04-28T02:28:23.561Z,14.34
2017-04-28T02:30:53.158Z,5.48
2017-04-28T02:33:23.081Z,6.04
2017-04-28T02:35:53.016Z,7.92
2017-04-28T02:38:21.841Z,7.00
2017-04-28T02:40:51.010Z,5.96
2017-04-28T02:43:20.209Z,8.28
2017-04-28T02:45:49.029Z,8.22
2017-04-28T02:48:18.205Z,7.46
2017-04-28T02:50:47.397Z,6.24
2017-04-28T02:53:16.575Z,6.92
2017-04-28T02:55:46.145Z,5.92
2017-04-28T02:58:15.037Z,11.42
2017-04-28T03:00:44.201Z,5.58
2017-04-28T03:03:13.516Z,7.88
2017-04-28T03:05:42.016Z,8.02
2017-04-28T03:08:11.114Z,10.90
2017-04-28T03:10:39.945Z,14.26
2017-04-28T03:13:09.882Z,7.12
2017-04-28T03:15:39.049Z,8.54
2017-04-28T03:18:08.420Z,5.26
2017-04-28T03:20:37.633Z,8.50
2017-04-28T03:23:06.831Z,7.74
2017-04-28T03:25:35.817Z,8.32
2017-04-28T03:28:05.010Z,8.26
2017-04-28T03:30:34.189Z,12.60
2017-04-28T03:33:03.005Z,7.80
2017-04-28T03:35:31.852Z,9.50
2017-04-28T03:38:01.025Z,8.72
2017-04-28T03:40:31.862Z,6.90
2017-04-28T03:43:01.775Z,8.16
2017-04-28T03:45:31.702Z,8.82
2017-04-28T03:48:01.638Z,8.74
2017-04-28T03:50:30.812Z,11.14
2017-04-28T03:53:00.735Z,13.92
2017-04-28T03:55:30.672Z,10.76
2017-04-28T03:57:59.837Z,12.12
2017-04-28T04:00:29.783Z,7.50
2017-04-28T04:02:58.661Z,8.98
2017-04-28T04:05:27.838Z,10.36
2017-04-28T04:07:57.003Z,7.62
2017-04-28T04:10:26.200Z,12.28
2017-04-28T04:12:55.373Z,12.48
2017-04-28T04:15:24.553Z,10.62
2017-04-28T04:17:54.492Z,10.76
2017-04-28T04:20:23.680Z,10.66
2017-04-28T04:22:52.875Z,9.08
2017-04-28T04:25:22.072Z,8.88
2017-04-28T04:27:51.233Z,8.16
2017-04-28T04:30:20.396Z,11.60
2017-04-28T04:32:49.597Z,11.64
2017-04-28T04:35:18.753Z,7.24
2017-04-28T04:37:49.746Z,9.08
2017-04-28T04:40:18.918Z,10.72
2017-04-28T04:42:48.094Z,11.74
2017-04-28T04:45:17.684Z,7.08
2017-04-28T04:47:46.845Z,8.40
2017-04-28T04:50:16.008Z,7.30
2017-04-28T04:52:45.198Z,11.70
2017-04-28T04:55:15.252Z,10.48
2017-04-28T04:57:44.429Z,7.00
2017-04-28T05:00:13.623Z,8.06
2017-04-28T05:02:42.257Z,11.72
2017-04-28T05:05:11.090Z,8.02
2017-04-28T05:07:41.020Z,7.64
2017-04-28T05:10:09.832Z,13.78
2017-04-28T05:12:38.662Z,10.54
2017-04-28T05:15:08.858Z,8.42
2017-04-28T05:17:38.030Z,10.24
2017-04-28T05:20:07.204Z,9.00
2017-04-28T05:22:37.133Z,7.66
2017-04-28T05:25:06.305Z,9.76
2017-04-28T05:27:36.452Z,13.94
2017-04-28T05:30:05.318Z,10.92
2017-04-28T05:32:34.139Z,9.56
2017-04-28T05:35:02.955Z,12.60
2017-04-28T05:37:32.150Z,8.80
2017-04-28T05:40:01.313Z,10.20
2017-04-28T05:42:30.680Z,9.62
2017-04-28T05:44:59.874Z,11.24
2017-04-28T05:47:29.041Z,13.14
2017-04-28T05:49:58.214Z,12.66
2017-04-28T05:52:28.153Z,12.22
2017-04-28T05:54:57.317Z,11.32
2017-04-28T05:57:27.245Z,13.46
2017-04-28T05:59:57.184Z,14.10
2017-04-28T06:02:26.344Z,10.56
2017-04-28T06:04:55.943Z,17.74
2017-04-28T06:07:24.798Z,17.24
2017-04-28T06:09:53.956Z,12.16
2017-04-28T06:12:23.888Z,15.78
2017-04-28T06:14:52.705Z,15.04
2017-04-28T06:17:21.874Z,16.88
2017-04-28T06:19:51.084Z,14.48
2017-04-28T06:22:19.909Z,17.60
2017-04-28T06:24:48.751Z,15.74
2017-04-28T06:27:17.574Z,12.02
2017-04-28T06:29:46.797Z,15.78
2017-04-28T06:32:15.988Z,17.46
2017-04-28T06:34:45.165Z,18.18
2017-04-28T06:37:13.990Z,14.10
2017-04-28T06:39:43.193Z,17.16
2017-04-28T06:42:12.008Z,18.18
2017-04-28T06:44:41.912Z,16.96
2017-04-28T06:47:11.854Z,18.66
2017-04-28T06:49:41.016Z,15.22
2017-04-28T06:52:10.426Z,15.68
2017-04-28T06:54:40.364Z,17.82
2017-04-28T06:57:09.532Z,15.58
2017-04-28T06:59:38.705Z,15.38
2017-04-28T07:02:07.553Z,15.96
2017-04-28T07:04:36.730Z,16.68
2017-04-28T07:07:06.650Z,13.06
2017-04-28T07:09:36.237Z,15.84
2017-04-28T07:12:05.414Z,15.76
2017-04-28T07:14:34.582Z,16.60
2017-04-28T07:17:03.433Z,17.42
2017-04-28T07:19:32.597Z,15.78
2017-04-28T07:22:01.425Z,17.48
2017-04-28T07:24:31.462Z,15.66
2017-04-28T07:27:01.367Z,17.28
2017-04-28T07:29:31.305Z,19.58
2017-04-28T07:32:00.474Z,16.42
2017-04-28T07:34:29.302Z,19.28
2017-04-28T07:36:58.515Z,18.82
2017-04-28T07:39:27.680Z,21.64
2017-04-28T07:41:57.626Z,19.66
2017-04-28T07:44:26.826Z,15.96
2017-04-28T07:46:55.997Z,20.40
2017-04-28T07:49:25.912Z,18.60
2017-04-28T07:51:55.844Z,17.78
2017-04-28T07:54:24.678Z,17.34
2017-04-28T07:56:53.850Z,18.18
2017-04-28T07:59:23.045Z,18.70
2017-04-28T08:01:52.212Z,22.88
2017-04-28T08:04:22.138Z,19.56
2017-04-28T08:06:51.342Z,17.06
2017-04-28T08:09:20.505Z,18.38
2017-04-28T08:11:49.669Z,17.10
2017-04-28T08:14:18.892Z,19.72
2017-04-28T08:16:48.060Z,18.06
2017-04-28T08:19:16.885Z,20.34
2017-04-28T08:21:46.085Z,19.94
2017-04-28T08:24:14.908Z,18.54
2017-04-28T08:26:44.085Z,23.06
2017-04-28T08:29:14.032Z,21.06
2017-04-28T08:31:43.202Z,24.62
2017-04-28T08:34:13.120Z,24.28
2017-04-28T08:36:43.294Z,25.06
2017-04-28T08:39:12.469Z,25.68
2017-04-28T08:41:41.653Z,27.16
2017-04-28T08:44:11.592Z,30.76
2017-04-28T08:46:40.756Z,32.12
2017-04-28T08:49:10.330Z,27.74
2017-04-28T08:51:39.177Z,29.56
2017-04-28T08:54:08.341Z,32.16
2017-04-28T08:56:37.506Z,29.66
2017-04-28T08:59:06.345Z,31.80
2017-04-28T09:01:36.256Z,24.26
2017-04-28T09:04:06.197Z,28.98
2017-04-28T09:06:35.365Z,29.42
2017-04-28T09:09:03.654Z,26.36
2017-04-28T09:11:33.585Z,26.50
2017-04-28T09:14:02.752Z,28.36
2017-04-28T09:16:31.913Z,31.80
2017-04-28T09:19:01.136Z,27.70
2017-04-28T09:21:30.306Z,26.88
2017-04-28T09:23:59.478Z,32.50
2017-04-28T09:26:28.676Z,31.00
2017-04-28T09:28:57.849Z,25.24
2017-04-28T09:31:27.026Z,31.24
2017-04-28T09:33:56.231Z,33.32
2017-04-28T09:36:25.408Z,34.80
2017-04-28T09:38:54.577Z,29.14
2017-04-28T09:41:23.773Z,32.12
2017-04-28T09:43:52.949Z,32.78
2017-04-28T09:46:23.893Z,31.88
2017-04-28T09:48:53.078Z,31.22
2017-04-28T09:51:22.265Z,31.62
2017-04-28T09:53:51.122Z,32.00
2017-04-28T09:56:20.288Z,32.34
2017-04-28T09:58:49.856Z,31.34
2017-04-28T10:01:19.065Z,31.26
2017-04-28T10:03:48.232Z,35.16
2017-04-28T10:06:17.062Z,29.70
2017-04-28T10:08:46.256Z,26.78
2017-04-28T10:11:15.424Z,30.30
2017-04-28T10:13:44.600Z,29.04
2017-04-28T10:16:13.807Z,29.12
2017-04-28T10:18:42.974Z,26.52
2017-04-28T10:21:12.914Z,27.40
2017-04-28T10:23:42.089Z,28.14
2017-04-28T10:26:12.009Z,27.58
2017-04-28T10:28:40.097Z,27.82
2017-04-28T10:31:08.572Z,30.62
2017-04-28T10:33:37.746Z,29.14
2017-04-28T10:36:07.685Z,28.76
2017-04-28T10:38:36.858Z,27.14
2017-04-28T10:41:06.781Z,25.14
2017-04-28T10:43:36.720Z,25.08
2017-04-28T10:46:05.544Z,23.50
2017-04-28T10:48:34.713Z,25.04
2017-04-28T10:51:03.917Z,24.10
2017-04-28T10:53:33.089Z,31.32
2017-04-28T10:56:03.009Z,24.16
2017-04-28T10:58:32.609Z,24.56
2017-04-28T11:01:02.174Z,22.10
2017-04-28T11:03:31.349Z,25.14
2017-04-28T11:06:00.558Z,23.00
2017-04-28T11:08:29.733Z,20.88
2017-04-28T11:10:58.910Z,26.40
2017-04-28T11:13:28.853Z,24.96
2017-04-28T11:15:58.031Z,22.96
2017-04-28T11:18:27.956Z,24.88
2017-04-28T11:20:57.436Z,22.34
2017-04-28T11:23:26.598Z,25.66
2017-04-28T11:25:55.769Z,22.56
2017-04-28T11:28:24.972Z,22.42
2017-04-28T11:30:54.140Z,21.24
2017-04-28T11:33:24.066Z,22.36
2017-04-28T11:35:54.025Z,19.70
2017-04-28T11:38:23.188Z,21.50
2017-04-28T11:40:52.366Z,20.80
2017-04-28T11:43:22.311Z,23.50
2017-04-28T11:45:51.476Z,20.60
2017-04-28T11:48:20.304Z,18.40
2017-04-28T11:50:49.141Z,17.86
2017-04-28T11:53:18.312Z,20.08
2017-04-28T11:55:47.509Z,16.76
2017-04-28T11:58:16.684Z,18.16
2017-04-28T12:00:45.853Z,17.18
2017-04-28T12:03:15.785Z,21.94
2017-04-28T12:05:45.692Z,22.92
2017-04-28T12:08:15.644Z,29.54
2017-04-28T12:10:44.833Z,25.50
2017-04-28T12:13:13.661Z,25.94
2017-04-28T12:15:42.861Z,32.42
2017-04-28T12:18:12.032Z,21.56
2017-04-28T12:20:41.201Z,24.66
2017-04-28T12:23:11.141Z,23.60
2017-04-28T12:25:40.697Z,27.20
2017-04-28T12:28:09.861Z,27.02
2017-04-28T12:30:39.065Z,26.56
2017-04-28T12:33:08.236Z,26.38
2017-04-28T12:35:37.405Z,26.86
2017-04-28T12:38:07.349Z,28.04
2017-04-28T12:40:36.796Z,27.85
2017-04-28T12:43:05.960Z,26.16
2017-04-28T12:45:35.157Z,23.58
2017-04-28T12:48:04.333Z,18.00
2017-04-28T12:50:34.269Z,14.18
2017-04-28T12:53:04.442Z,11.17
2017-04-28T12:55:33.634Z,8.78
2017-04-28T12:58:02.817Z,11.90
2017-04-28T13:00:31.989Z,12.10
2017-04-28T13:03:01.169Z,13.16
2017-04-28T13:05:31.137Z,14.32
2017-04-28T13:07:59.970Z,13.30
2017-04-28T13:10:29.881Z,10.20
2017-04-28T13:12:59.921Z,9.40
2017-04-28T13:15:29.101Z,11.88
2017-04-28T13:17:59.020Z,8.82
2017-04-28T13:20:28.940Z,9.64
2017-04-28T13:22:58.909Z,11.54
2017-04-28T13:25:28.084Z,11.20
2017-04-28T13:27:57.302Z,10.20
2017-04-28T13:30:26.473Z,12.34
2017-04-28T13:32:55.645Z,10.50
2017-04-28T13:35:25.580Z,11.06
2017-04-28T13:37:54.745Z,11.96
2017-04-28T13:40:23.920Z,12.78
2017-04-28T13:42:53.117Z,11.70
2017-04-28T13:45:22.287Z,12.74
2017-04-28T13:47:51.113Z,11.36
2017-04-28T13:50:19.957Z,10.74
2017-04-28T13:52:49.126Z,11.08
2017-04-28T13:55:18.305Z,13.22
2017-04-28T13:57:47.508Z,14.24
2017-04-28T14:00:16.324Z,15.06
2017-04-28T14:02:46.228Z,16.16
2017-04-28T14:05:15.467Z,12.26
2017-04-28T14:07:44.634Z,13.68
2017-04-28T14:10:14.563Z,14.08
2017-04-28T14:12:44.156Z,15.16
2017-04-28T14:15:14.093Z,13.52
2017-04-28T14:17:43.317Z,14.40
2017-04-28T14:20:12.524Z,15.64
2017-04-28T14:22:41.702Z,13.40
2017-04-28T14:25:10.872Z,14.08
2017-04-28T14:27:40.817Z,12.82
2017-04-28T14:30:09.977Z,15.04
2017-04-28T14:32:39.144Z,17.98
2017-04-28T14:35:07.997Z,17.20
2017-04-28T14:37:37.170Z,16.38
2017-04-28T14:40:07.097Z,17.92
2017-04-28T14:42:36.698Z,16.50
2017-04-28T14:45:06.608Z,15.90
2017-04-28T14:47:35.789Z,18.96
2017-04-28T14:50:05.269Z,19.77
2017-04-28T14:52:34.444Z,19.38
2017-04-28T14:55:03.632Z,21.86
2017-04-28T14:57:32.494Z,18.16
2017-04-28T15:00:01.658Z,19.62
2017-04-28T15:02:30.829Z,16.08
2017-04-28T15:05:00.044Z,19.76
2017-04-28T15:07:29.217Z,17.00
2017-04-28T15:09:58.389Z,15.66
2017-04-28T15:12:27.596Z,17.98
2017-04-28T15:14:57.780Z,21.28
2017-04-28T15:17:26.980Z,17.94
2017-04-28T15:19:56.149Z,17.72
2017-04-28T15:22:25.323Z,17.74
2017-04-28T15:24:55.270Z,19.72
2017-04-28T15:27:24.448Z,14.66
2017-04-28T15:29:53.621Z,18.26
2017-04-28T15:32:22.825Z,18.42
2017-04-28T15:34:52.413Z,15.02
2017-04-28T15:37:21.577Z,14.10
2017-04-28T15:39:50.698Z,17.08
2017-04-28T15:42:19.873Z,12.22
2017-04-28T15:44:49.042Z,9.18
2017-04-28T15:47:18.968Z,7.76
2017-04-28T15:49:48.128Z,8.10
2017-04-28T15:52:17.294Z,8.58
2017-04-28T15:54:46.491Z,6.54
2017-04-28T15:57:15.304Z,5.22
2017-04-28T15:59:44.477Z,6.20
2017-04-28T16:02:13.685Z,4.82
2017-04-28T16:04:42.853Z,4.14
2017-04-28T16:07:12.021Z,4.44
2017-04-28T16:09:41.963Z,5.34
2017-04-28T16:12:11.124Z,3.68
2017-04-28T16:14:40.284Z,5.04
2017-04-28T16:17:09.158Z,4.32
2017-04-28T16:19:38.309Z,4.66
2017-04-28T16:22:07.147Z,3.74
2017-04-28T16:24:36.337Z,5.16
2017-04-28T16:27:04.821Z,3.70
2017-04-28T16:29:33.985Z,3.70
2017-04-28T16:32:03.180Z,5.18
2017-04-28T16:34:32.013Z,6.72
2017-04-28T16:37:01.177Z,5.92
2017-04-28T16:39:30.800Z,5.40
2017-04-28T16:42:00.362Z,5.32
2017-04-28T16:44:29.528Z,5.16
2017-04-28T16:46:58.385Z,6.14
2017-04-28T16:49:28.294Z,6.86
2017-04-28T16:51:58.228Z,9.64
2017-04-28T16:54:27.877Z,8.44
2017-04-28T16:56:57.043Z,9.52
2017-04-28T16:59:26.238Z,7.74
2017-04-28T17:01:56.145Z,9.40
2017-04-28T17:04:26.086Z,9.46
2017-04-28T17:06:55.244Z,8.18
2017-04-28T17:09:24.404Z,9.10
2017-04-28T17:11:53.602Z,9.36
2017-04-28T17:14:22.774Z,10.70
2017-04-28T17:16:51.592Z,9.90
2017-04-28T17:19:20.784Z,7.54
2017-04-28T17:21:49.940Z,10.08
2017-04-28T17:24:19.905Z,10.88
2017-04-28T17:26:49.067Z,7.40
2017-04-28T17:29:18.237Z,10.38
2017-04-28T17:31:47.444Z,8.30
2017-04-28T17:34:17.345Z,7.72
2017-04-28T17:36:46.529Z,12.18
2017-04-28T17:39:15.618Z,6.86
2017-04-28T17:41:44.439Z,7.78
2017-04-28T17:44:13.600Z,6.78
2017-04-28T17:46:43.433Z,8.90
2017-04-28T17:49:12.595Z,6.42
2017-04-28T17:51:41.877Z,8.32
2017-04-28T17:54:11.073Z,6.48
2017-04-28T17:56:40.242Z,6.42
2017-04-28T17:59:09.408Z,6.60
2017-04-28T18:01:38.248Z,7.54
2017-04-28T18:04:07.808Z,6.78
2017-04-28T18:06:37.217Z,6.28
2017-04-28T18:09:06.419Z,6.44
2017-04-28T18:11:35.236Z,8.68
2017-04-28T18:14:04.408Z,6.32
2017-04-28T18:16:33.609Z,6.36
2017-04-28T18:19:02.764Z,5.20
2017-04-28T18:21:31.930Z,6.10
2017-04-28T18:24:01.136Z,6.50
2017-04-28T18:26:30.726Z,6.80
2017-04-28T18:29:01.191Z,4.22
2017-04-28T18:31:30.348Z,4.38
2017-04-28T18:33:59.165Z,5.94
2017-04-28T18:36:28.798Z,4.24
2017-04-28T18:38:57.961Z,5.34
2017-04-28T18:41:27.145Z,4.98
2017-04-28T18:43:56.342Z,5.64
2017-04-28T18:46:25.513Z,5.40
2017-04-28T18:48:54.677Z,5.70
2017-04-28T18:51:24.277Z,5.18
2017-04-28T18:53:54.209Z,9.24
2017-04-28T18:56:24.137Z,6.96
2017-04-28T18:58:53.569Z,6.12
2017-04-28T19:01:22.734Z,6.42
2017-04-28T19:03:51.986Z,8.18
2017-04-28T19:06:21.150Z,8.26
2017-04-28T19:08:50.308Z,8.50
2017-04-28T19:11:20.486Z,7.04
2017-04-28T19:13:49.644Z,7.38
2017-04-28T19:16:18.804Z,5.38
2017-04-28T19:18:47.992Z,5.84
2017-04-28T19:21:16.804Z,6.40
2017-04-28T19:23:45.621Z,5.00
2017-04-28T19:26:14.813Z,4.90
2017-04-28T19:28:44.708Z,7.42
2017-04-28T19:31:13.885Z,5.48
2017-04-28T19:33:43.110Z,7.02
2017-04-28T19:36:13.036Z,5.72
2017-04-28T19:38:42.967Z,4.92
2017-04-28T19:41:12.136Z,6.76
2017-04-28T19:43:41.305Z,5.64
2017-04-28T19:46:10.158Z,5.80
2017-04-28T19:48:39.349Z,6.10
2017-04-28T19:51:08.523Z,7.50
2017-04-28T19:53:37.722Z,8.26
2017-04-28T19:56:06.890Z,8.52
2017-04-28T19:58:36.102Z,6.44
2017-04-28T20:01:04.966Z,8.88
2017-04-28T20:03:34.128Z,5.88
2017-04-28T20:06:04.053Z,6.50
2017-04-28T20:08:33.240Z,8.08
2017-04-28T20:11:03.160Z,6.90
2017-04-28T20:13:33.100Z,7.34
2017-04-28T20:16:02.293Z,8.12
2017-04-28T20:18:31.466Z,9.38
2017-04-28T20:21:01.604Z,7.80
2017-04-28T20:23:30.801Z,7.92
2017-04-28T20:25:59.964Z,6.24
2017-04-28T20:28:29.141Z,7.56
2017-04-28T20:30:57.991Z,8.58
2017-04-28T20:33:27.401Z,7.66
2017-04-28T20:35:56.565Z,8.00
2017-04-28T20:38:25.449Z,9.20
2017-04-28T20:40:54.620Z,7.54
2017-04-28T20:43:23.841Z,9.14
2017-04-28T20:45:52.849Z,8.50
2017-04-28T20:48:21.674Z,16.76
2017-04-28T20:50:50.537Z,6.84
2017-04-28T20:53:20.152Z,7.10
2017-04-28T20:55:49.709Z,8.24
2017-04-28T20:58:18.878Z,8.50
2017-04-28T21:00:47.753Z,11.50
2017-04-28T21:03:17.539Z,9.76
2017-04-28T21:05:46.707Z,8.86
2017-04-28T21:08:15.901Z,12.22
2017-04-28T21:10:45.065Z,8.66
2017-04-28T21:13:14.241Z,11.74
2017-04-28T21:15:43.656Z,8.70
2017-04-28T21:18:13.220Z,9.26
2017-04-28T21:20:42.270Z,10.26
2017-04-28T21:23:11.129Z,7.52
2017-04-28T21:25:40.648Z,13.08
2017-04-28T21:28:09.474Z,7.18
2017-04-28T21:30:38.669Z,7.12
2017-04-28T21:33:07.492Z,10.14
2017-04-28T21:35:36.686Z,8.74
2017-04-28T21:38:05.885Z,8.90
2017-04-28T21:40:35.054Z,10.62
2017-04-28T21:43:03.879Z,5.48
2017-04-28T21:45:33.076Z,5.46
2017-04-28T21:48:02.250Z,9.74
2017-04-28T21:50:31.418Z,5.54
2017-04-28T21:53:01.362Z,8.74
2017-04-28T21:55:30.534Z,6.40
2017-04-28T21:58:00.484Z,6.06
2017-04-28T22:00:29.326Z,4.22
2017-04-28T22:02:58.165Z,8.08
2017-04-28T22:05:27.334Z,5.40
2017-04-28T22:07:57.289Z,7.24
2017-04-28T22:10:26.463Z,5.82
2017-04-28T22:12:55.624Z,5.18
2017-04-28T22:15:39.910Z,6.28
2017-04-28T22:18:08.733Z,5.10
2017-04-28T22:20:37.566Z,6.92
2017-04-28T22:23:07.504Z,6.08
2017-04-28T22:25:36.678Z,4.26
2017-04-28T22:28:06.601Z,4.54
2017-04-28T22:30:36.234Z,5.90
2017-04-28T22:33:05.396Z,4.36
2017-04-28T22:35:34.560Z,6.20
2017-04-28T22:38:03.758Z,4.44
2017-04-28T22:40:32.580Z,2.70
2017-04-28T22:43:01.741Z,5.50
2017-04-28T22:45:30.590Z,3.72
2017-04-28T22:48:00.498Z,2.56
2017-04-28T22:50:30.451Z,3.24
2017-04-28T22:52:59.614Z,1.90
2017-04-28T22:55:29.531Z,5.84
2017-04-28T22:57:58.738Z,2.68
2017-04-28T23:00:28.659Z,2.56
2017-04-28T23:02:57.869Z,7.82
2017-04-28T23:05:27.089Z,2.50
2017-04-28T23:07:56.249Z,2.28
2017-04-28T23:10:26.174Z,2.40
2017-04-28T23:12:55.017Z,3.00
2017-04-28T23:15:24.190Z,2.60
2017-04-28T23:17:53.012Z,4.72
2017-04-28T23:20:22.224Z,3.62
2017-04-28T23:22:51.294Z,3.30
2017-04-28T23:25:20.457Z,3.04
2017-04-28T23:27:49.662Z,4.30
2017-04-28T23:30:18.816Z,2.54
2017-04-28T23:32:47.635Z,7.36
2017-04-28T23:35:16.828Z,4.62
2017-04-28T23:37:46.393Z,3.80
2017-04-28T23:40:15.566Z,2.64
2017-04-28T23:42:44.780Z,2.50
2017-04-28T23:45:13.950Z,3.18
2017-04-28T23:47:43.118Z,6.32
2017-04-28T23:50:13.059Z,4.14
2017-04-28T23:52:42.324Z,3.00
2017-04-28T23:55:11.496Z,4.00
2017-04-28T23:57:40.706Z,3.20
